KBBD/BBD METAR and TAF weather

Enter ICAO airport designator
Station Type Date Time Source
KBBD METAR 2021/10/24 21:35 UTC NOAA

KBBD 242135Z AUTO 30010KT 10SM 31/11 RMK AO2 PWINO TSNO


Station Type Date Time Source
KBBD Decoded METAR 2021/10/24 21:35 UTC NOAA

Brady, Curtis Field Airport, TX, United States (KBBD) 31-10-45N 099-19-26W
Oct 24, 2021 - 05:35 PM EDT / 2021.10.24 2135 UTC
Wind: from the WNW (300 degrees) at 12 MPH (10 KT):0
Visibility: 10 mile(s):0
Temperature: 87 F (31 C)
Dew Point: 51 F (11 C)
Relative Humidity: 29%
ob: KBBD 242135Z AUTO 30010KT 10SM 31/11 RMK AO2 PWINO TSNO
cycle: 21

Station Type Date Time Source
KBBD TAF 2021/10/24 19:24 UTC NOAA

TAF
AMD KBBD 241922Z 2419/2518 27008G15KT P6SM FEW250
FM242000 24010KT P6SM SKC
FM250100 VRB05KT P6SM FEW250
AMD NOT SKED

Example: see airport list